Rockton, Illinois
Current Conditions -  °F | °C
As of 5:45 PM on Wednesday 26 Nov 2014 (Local Time) from KJVL Reporting Station
Haze Haze  
Wind Chill: 14°   Ceiling: 2300
Heat Index: 23°   Visibility: 4mi
Dew Point: 21°   Wind: 8mph
Humidity: 93%   Direction: 350°N
Pressure: 30.14"   Gusts: NA
Location:  42.45°N, 89.07°W
Report Text: KJVL 262345Z 35007KT 4SM BR OVC023 M05/M06 A3014
Loading
Personal Weather Stations






























Interactive Weather Map New forecast layout! Learn more

10-Day Weather Forecast

Advertisements
Track Severe Weather on mobile